Time;durP1;ratioP1;P1;durP2;ratioP2;P2;SDS_P1;SDS_P2;PMS_P1;PMS_P2;Temp;Humidity;BMP_temperature;BMP_pressure;BME280_temperature;BME280_humidity;BME280_pressure;Samples;Min_cycle;Max_cycle;Signal;HPM_P1;HPM_P2
2022/12/28 00:00:39;;;;;;;2.38;1.30;;;;;;;;;;12992062;22;20023;-84
2022/12/28 00:05:43;;;;;;;2.05;1.23;;;;;;;;;;12991747;22;20062;-85
2022/12/28 00:10:46;;;;;;;2.65;1.30;;;;;;;;;;12998201;22;20016;-82
2022/12/28 00:15:51;;;;;;;4.40;1.77;;;;;;;;;;13024772;22;20038;-82
2022/12/28 00:20:59;;;;;;;2.22;1.27;;;;;;;;;;12993543;22;20069;-82
2022/12/28 00:26:07;;;;;;;2.50;1.60;;;;;;;;;;12992383;22;20072;-82
2022/12/28 00:31:12;;;;;;;3.25;1.48;;;;;;;;;;12993020;22;20027;-84
2022/12/28 00:36:16;;;;;;;1.80;1.30;;;;;;;;;;13018348;22;20026;-82
2022/12/28 00:41:19;;;;;;;1.88;1.35;;;;;;;;;;13017751;22;20053;-81
2022/12/28 00:46:24;;;;;;;2.17;1.48;;;;;;;;;;12991722;22;20078;-82
2022/12/28 00:51:28;;;;;;;2.95;1.70;;;;;;;;;;12991473;22;20467;-82
2022/12/28 00:56:31;;;;;;;3.22;1.45;;;;;;;;;;13020654;22;20042;-82
2022/12/28 01:01:36;;;;;;;4.00;2.10;;;;;;;;;;12993343;22;20023;-82
2022/12/28 01:06:39;;;;;;;3.45;1.92;;;;;;;;;;12994685;22;20372;-83
2022/12/28 01:11:43;;;;;;;3.92;1.45;;;;;;;;;;12996294;22;20019;-82
2022/12/28 01:16:48;;;;;;;4.90;1.85;;;;;;;;;;12998016;22;20098;-82
2022/12/28 01:21:52;;;;;;;3.67;2.00;;;;;;;;;;12996973;22;20608;-82
2022/12/28 01:26:56;;;;;;;2.40;1.55;;;;;;;;;;12998820;22;20019;-82
2022/12/28 01:32:00;;;;;;;2.08;1.45;;;;;;;;;;12992953;22;20023;-85
2022/12/28 01:37:04;;;;;;;4.65;1.98;;;;;;;;;;13034135;22;20086;-86
2022/12/28 01:42:16;;;;;;;2.07;1.57;;;;;;;;;;12980788;22;20023;-84
2022/12/28 01:47:32;;;;;;;1.80;1.50;;;;;;;;;;12989297;22;20023;-85
2022/12/28 01:52:37;;;;;;;1.83;1.30;;;;;;;;;;13033267;22;20015;-84
2022/12/28 01:57:44;;;;;;;1.38;1.27;;;;;;;;;;12989007;22;20628;-85
2022/12/28 02:02:54;;;;;;;2.15;1.40;;;;;;;;;;12988687;22;20019;-84
2022/12/28 02:08:06;;;;;;;2.05;1.52;;;;;;;;;;12988584;22;20107;-81
2022/12/28 02:13:10;;;;;;;1.40;1.30;;;;;;;;;;12988939;22;20046;-82
2022/12/28 02:18:17;;;;;;;3.40;2.20;;;;;;;;;;12987509;22;20035;-82
2022/12/28 02:23:38;;;;;;;3.10;1.83;;;;;;;;;;12987969;22;20033;-82
2022/12/28 02:29:09;;;;;;;2.03;1.38;;;;;;;;;;12985632;22;20023;-82
2022/12/28 02:34:19;;;;;;;1.95;1.40;;;;;;;;;;12982502;22;20071;-82
2022/12/28 02:39:31;;;;;;;2.05;1.63;;;;;;;;;;12986806;22;20463;-84
2022/12/28 02:50:06;;;;;;;1.50;1.38;;;;;;;;;;12987301;22;20023;-85
2022/12/28 03:00:58;;;;;;;3.53;2.00;;;;;;;;;;12990064;22;20034;-85
2022/12/28 03:11:38;;;;;;;3.92;2.70;;;;;;;;;;12987400;22;20031;-83
2022/12/28 03:33:02;;;;;;;4.55;2.72;;;;;;;;;;12988320;22;20035;-82
2022/12/28 03:38:07;;;;;;;3.33;2.60;;;;;;;;;;12985983;22;20019;-82
2022/12/28 03:48:39;;;;;;;4.13;2.05;;;;;;;;;;12987374;22;20027;-84
2022/12/28 03:53:45;;;;;;;3.13;1.97;;;;;;;;;;12989560;22;20106;-84
2022/12/28 03:58:52;;;;;;;2.58;1.80;;;;;;;;;;12991008;22;20038;-85
2022/12/28 04:03:58;;;;;;;1.50;1.40;;;;;;;;;;12992853;22;20023;-85
2022/12/28 04:09:03;;;;;;;2.88;1.58;;;;;;;;;;12991297;22;20024;-86
2022/12/28 04:14:12;;;;;;;1.92;1.20;;;;;;;;;;12991772;22;20636;-82
2022/12/28 04:19:20;;;;;;;2.33;1.40;;;;;;;;;;12991710;22;20030;-84
2022/12/28 04:24:23;;;;;;;2.03;1.35;;;;;;;;;;12989202;22;20057;-82
2022/12/28 04:29:30;;;;;;;1.38;1.27;;;;;;;;;;12986827;22;20030;-85
2022/12/28 04:34:44;;;;;;;;;;;;;;;;;;12985788;22;20081;-84
2022/12/28 04:39:52;;;;;;;3.17;1.80;;;;;;;;;;13013377;22;19926;-84
2022/12/28 04:44:56;;;;;;;2.33;1.95;;;;;;;;;;12986775;22;20518;-82
2022/12/28 04:50:00;;;;;;;1.98;1.45;;;;;;;;;;12989270;22;20027;-84
2022/12/28 04:55:05;;;;;;;3.00;1.83;;;;;;;;;;13020918;22;20098;-85
2022/12/28 05:00:10;;;;;;;2.85;1.80;;;;;;;;;;12989476;22;20595;-84
2022/12/28 05:05:18;;;;;;;2.55;1.20;;;;;;;;;;12994483;22;20360;-82
2022/12/28 05:10:21;;;;;;;2.83;1.30;;;;;;;;;;12996485;22;20023;-84
2022/12/28 05:15:25;;;;;;;2.42;1.40;;;;;;;;;;12989936;22;20285;-82
2022/12/28 05:20:30;;;;;;;1.75;1.30;;;;;;;;;;13030186;22;20027;-86
2022/12/28 05:25:34;;;;;;;1.20;1.10;;;;;;;;;;12997391;22;20106;-82
2022/12/28 05:30:38;;;;;;;4.43;1.33;;;;;;;;;;12992519;22;20019;-84
2022/12/28 05:35:42;;;;;;;4.05;1.33;;;;;;;;;;13023525;22;20088;-86
2022/12/28 05:40:46;;;;;;;1.00;0.90;;;;;;;;;;12991779;22;20118;-84
2022/12/28 05:45:50;;;;;;;1.08;0.93;;;;;;;;;;12995769;22;20011;-82
2022/12/28 05:50:57;;;;;;;1.52;1.00;;;;;;;;;;13024538;22;20078;-84
2022/12/28 05:56:03;;;;;;;1.63;1.00;;;;;;;;;;12990637;22;20043;-85
2022/12/28 06:01:13;;;;;;;1.08;0.80;;;;;;;;;;13021068;22;20023;-84
2022/12/28 06:06:20;;;;;;;2.47;0.88;;;;;;;;;;12993841;22;20468;-84
2022/12/28 06:11:25;;;;;;;1.67;0.88;;;;;;;;;;12987888;22;20031;-83
2022/12/28 06:16:31;;;;;;;1.93;1.20;;;;;;;;;;13012828;22;20019;-82
2022/12/28 06:21:38;;;;;;;0.82;0.80;;;;;;;;;;12985700;22;20257;-82
2022/12/28 06:26:42;;;;;;;0.75;0.75;;;;;;;;;;12985782;22;20098;-83
2022/12/28 06:31:47;;;;;;;1.50;1.00;;;;;;;;;;12986693;22;20057;-84
2022/12/28 06:36:52;;;;;;;3.75;0.70;;;;;;;;;;13036278;22;20061;-84
2022/12/28 06:41:56;;;;;;;0.90;0.65;;;;;;;;;;12984851;22;20033;-82
2022/12/28 06:47:00;;;;;;;3.60;0.90;;;;;;;;;;13033940;22;20062;-85
2022/12/28 06:52:05;;;;;;;0.70;0.60;;;;;;;;;;12985513;22;20024;-84
2022/12/28 06:57:08;;;;;;;0.95;0.50;;;;;;;;;;12985022;22;20039;-83
2022/12/28 07:02:12;;;;;;;0.95;0.60;;;;;;;;;;12981535;22;20019;-83
2022/12/28 07:07:16;;;;;;;1.40;0.70;;;;;;;;;;12982207;22;20023;-83
2022/12/28 07:12:20;;;;;;;1.27;0.40;;;;;;;;;;13010844;22;20015;-82
2022/12/28 07:17:23;;;;;;;1.42;0.70;;;;;;;;;;13029066;22;20047;-83
2022/12/28 07:22:28;;;;;;;1.48;0.65;;;;;;;;;;13031101;22;20030;-82
2022/12/28 07:27:31;;;;;;;1.42;0.88;;;;;;;;;;12984499;22;20027;-84
2022/12/28 07:32:37;;;;;;;1.25;0.80;;;;;;;;;;12985694;22;20365;-84
2022/12/28 07:37:42;;;;;;;1.85;0.50;;;;;;;;;;12984204;22;20015;-86
2022/12/28 07:42:45;;;;;;;0.82;0.73;;;;;;;;;;12984381;22;20046;-82
2022/12/28 07:47:49;;;;;;;1.88;1.05;;;;;;;;;;12984502;22;20081;-83
2022/12/28 07:52:54;;;;;;;0.93;0.75;;;;;;;;;;13028740;22;20711;-82
2022/12/28 07:57:58;;;;;;;1.70;0.80;;;;;;;;;;13010572;22;20187;-83
2022/12/28 08:03:01;;;;;;;1.35;0.90;;;;;;;;;;12983457;22;20509;-83
2022/12/28 08:08:06;;;;;;;1.55;1.17;;;;;;;;;;12990329;22;20023;-82
2022/12/28 08:13:10;;;;;;;2.83;1.48;;;;;;;;;;12995139;22;20027;-84
2022/12/28 08:18:13;;;;;;;1.80;0.70;;;;;;;;;;12989406;22;20399;-83
2022/12/28 08:23:18;;;;;;;2.13;1.00;;;;;;;;;;12991059;22;20029;-82
2022/12/28 08:28:24;;;;;;;1.08;0.60;;;;;;;;;;12992945;22;20051;-82
2022/12/28 08:33:30;;;;;;;3.00;0.70;;;;;;;;;;13014478;22;20049;-82
2022/12/28 08:38:36;;;;;;;3.45;1.13;;;;;;;;;;12990293;22;20023;-83
2022/12/28 08:43:40;;;;;;;1.77;0.93;;;;;;;;;;12985518;22;20094;-83
2022/12/28 08:48:47;;;;;;;1.80;1.30;;;;;;;;;;12979532;22;20766;-83
2022/12/28 08:53:53;;;;;;;2.65;1.15;;;;;;;;;;13025514;22;20057;-82
2022/12/28 08:58:57;;;;;;;1.55;0.77;;;;;;;;;;13022236;22;20067;-82
2022/12/28 09:04:02;;;;;;;3.25;0.70;;;;;;;;;;13011108;22;20027;-83
2022/12/28 09:09:10;;;;;;;2.90;1.10;;;;;;;;;;12984312;22;20019;-83
2022/12/28 09:14:15;;;;;;;1.60;0.70;;;;;;;;;;12986028;22;20282;-84
2022/12/28 09:19:25;;;;;;;1.50;1.00;;;;;;;;;;12987791;22;20629;-84
2022/12/28 09:24:32;;;;;;;2.00;0.87;;;;;;;;;;13024197;22;20098;-85
2022/12/28 09:29:36;;;;;;;1.77;0.93;;;;;;;;;;13014370;22;20280;-83
2022/12/28 09:34:40;;;;;;;2.45;0.90;;;;;;;;;;12990081;22;20073;-83
2022/12/28 09:39:46;;;;;;;2.53;0.95;;;;;;;;;;13015251;22;20023;-85
2022/12/28 09:44:55;;;;;;;2.03;0.98;;;;;;;;;;12986715;22;20460;-84
2022/12/28 09:50:24;;;;;;;2.22;0.93;;;;;;;;;;13012614;22;20030;-82
2022/12/28 09:55:31;;;;;;;3.05;1.02;;;;;;;;;;12985953;22;20034;-82
2022/12/28 10:00:41;;;;;;;3.27;1.07;;;;;;;;;;12986763;22;20027;-86
2022/12/28 10:05:45;;;;;;;1.75;0.70;;;;;;;;;;13017413;22;20077;-83
2022/12/28 10:10:51;;;;;;;1.88;1.00;;;;;;;;;;12987659;22;20019;-82
2022/12/28 10:15:56;;;;;;;4.68;1.25;;;;;;;;;;13019375;22;20030;-82
2022/12/28 10:21:06;;;;;;;2.63;0.70;;;;;;;;;;12992380;22;20492;-83
2022/12/28 10:26:19;;;;;;;1.35;0.73;;;;;;;;;;13013914;22;20029;-83
2022/12/28 10:31:33;;;;;;;3.22;1.35;;;;;;;;;;12983372;22;20664;-82
2022/12/28 10:36:37;;;;;;;3.17;1.10;;;;;;;;;;12978951;22;20019;-82
2022/12/28 10:41:44;;;;;;;3.08;1.10;;;;;;;;;;13008827;22;20499;-83
2022/12/28 10:46:56;;;;;;;5.03;1.25;;;;;;;;;;13013240;22;20016;-82
2022/12/28 10:52:06;;;;;;;4.60;1.25;;;;;;;;;;12988133;22;20031;-82
2022/12/28 10:57:17;;;;;;;3.70;1.00;;;;;;;;;;12994750;22;20287;-84
2022/12/28 11:02:28;;;;;;;2.17;0.90;;;;;;;;;;12991998;22;20035;-84
2022/12/28 11:07:36;;;;;;;1.20;0.70;;;;;;;;;;12989809;22;20759;-82
2022/12/28 11:12:44;;;;;;;1.98;0.70;;;;;;;;;;13040305;22;20023;-82
2022/12/28 11:17:55;;;;;;;1.52;0.90;;;;;;;;;;13021499;22;20023;-83
2022/12/28 11:22:59;;;;;;;1.13;0.73;;;;;;;;;;12994440;22;20023;-84
2022/12/28 11:28:06;;;;;;;2.03;0.80;;;;;;;;;;13023520;22;20030;-84
2022/12/28 11:33:25;;;;;;;1.05;0.68;;;;;;;;;;13036828;22;20035;-83
2022/12/28 11:38:40;;;;;;;1.55;0.80;;;;;;;;;;12925137;22;20095;-87
2022/12/28 11:43:53;;;;;;;2.67;0.75;;;;;;;;;;12885879;23;20463;-85
2022/12/28 11:49:00;;;;;;;1.25;0.65;;;;;;;;;;12889968;23;20406;-89
2022/12/28 11:54:05;;;;;;;1.67;0.80;;;;;;;;;;12924370;23;20024;-88
2022/12/28 11:59:24;;;;;;;3.13;0.90;;;;;;;;;;12880123;23;20642;-87
2022/12/28 12:04:36;;;;;;;1.10;0.60;;;;;;;;;;12880293;23;20020;-89
2022/12/28 12:09:44;;;;;;;1.70;0.80;;;;;;;;;;12907329;22;20024;-88
2022/12/28 12:14:54;;;;;;;1.05;0.47;;;;;;;;;;12879740;23;20028;-85
2022/12/28 12:20:02;;;;;;;1.50;0.70;;;;;;;;;;12875943;23;20051;-89
2022/12/28 12:25:14;;;;;;;0.85;0.50;;;;;;;;;;12880942;23;20031;-87
2022/12/28 12:30:21;;;;;;;2.13;0.77;;;;;;;;;;12904807;22;20028;-89
2022/12/28 12:35:27;;;;;;;1.55;0.50;;;;;;;;;;12876089;23;20039;-89
2022/12/28 12:40:54;;;;;;;1.10;0.80;;;;;;;;;;12879395;23;20103;-86
2022/12/28 12:46:13;;;;;;;1.10;0.60;;;;;;;;;;12878333;22;20510;-86
2022/12/28 12:51:27;;;;;;;0.50;0.50;;;;;;;;;;12907644;23;20028;-86
2022/12/28 12:56:41;;;;;;;2.13;0.90;;;;;;;;;;12904834;22;20020;-83
2022/12/28 13:01:53;;;;;;;1.42;0.80;;;;;;;;;;12879617;23;20020;-86
2022/12/28 13:07:02;;;;;;;0.77;0.60;;;;;;;;;;12905148;22;20020;-87
2022/12/28 13:12:14;;;;;;;1.65;0.88;;;;;;;;;;12879630;23;20074;-86
2022/12/28 13:17:21;;;;;;;1.15;0.80;;;;;;;;;;12896442;22;20616;-87
2022/12/28 13:22:29;;;;;;;1.50;0.70;;;;;;;;;;12879356;23;20023;-89
2022/12/28 13:27:35;;;;;;;0.45;0.45;;;;;;;;;;12874734;22;20466;-87
2022/12/28 13:32:50;;;;;;;1.20;0.93;;;;;;;;;;12880965;23;20024;-84
2022/12/28 13:38:05;;;;;;;4.18;2.38;;;;;;;;;;12877974;22;20282;-86
2022/12/28 13:43:51;;;;;;;2.42;1.58;;;;;;;;;;12883841;23;20020;-88
2022/12/28 13:48:58;;;;;;;2.22;1.10;;;;;;;;;;12872486;23;20104;-89
2022/12/28 13:54:02;;;;;;;1.70;0.90;;;;;;;;;;12908246;23;20035;-87
2022/12/28 13:59:10;;;;;;;1.33;0.82;;;;;;;;;;12907480;22;20040;-87
2022/12/28 14:04:18;;;;;;;1.38;1.02;;;;;;;;;;12910298;23;20024;-88
2022/12/28 14:09:42;;;;;;;2.15;0.90;;;;;;;;;;12880109;23;20332;-87
2022/12/28 14:14:46;;;;;;;0.70;0.70;;;;;;;;;;12908102;23;20392;-89
2022/12/28 14:19:54;;;;;;;1.10;0.93;;;;;;;;;;12914480;22;20050;-88
2022/12/28 14:24:59;;;;;;;1.17;0.80;;;;;;;;;;12883125;23;20078;-90
2022/12/28 14:30:05;;;;;;;1.85;0.90;;;;;;;;;;12880126;23;20364;-89
2022/12/28 14:35:18;;;;;;;0.95;0.70;;;;;;;;;;12883259;23;20024;-85
2022/12/28 14:40:28;;;;;;;0.98;0.60;;;;;;;;;;12880670;23;20079;-88
2022/12/28 14:45:39;;;;;;;0.55;0.55;;;;;;;;;;12907930;23;20028;-88
2022/12/28 14:50:56;;;;;;;1.23;0.80;;;;;;;;;;12880971;23;20067;-86
2022/12/28 14:56:04;;;;;;;0.60;0.60;;;;;;;;;;12906524;22;20249;-88
2022/12/28 15:01:09;;;;;;;1.80;0.70;;;;;;;;;;12906925;23;20482;-88
2022/12/28 15:06:14;;;;;;;1.33;1.08;;;;;;;;;;12881463;22;20024;-86
2022/12/28 15:11:18;;;;;;;1.95;0.70;;;;;;;;;;12883800;23;20063;-88
2022/12/28 15:16:23;;;;;;;0.93;0.75;;;;;;;;;;12882669;22;20425;-87
2022/12/28 15:21:28;;;;;;;0.80;0.77;;;;;;;;;;12884723;23;20024;-87
2022/12/28 15:26:32;;;;;;;1.13;0.80;;;;;;;;;;12908228;22;20751;-87
2022/12/28 15:31:35;;;;;;;0.60;0.50;;;;;;;;;;12881115;23;20099;-88
2022/12/28 15:36:41;;;;;;;0.50;0.50;;;;;;;;;;12905757;22;20035;-88
2022/12/28 15:41:48;;;;;;;0.33;0.33;;;;;;;;;;12909993;23;20024;-85
2022/12/28 15:46:52;;;;;;;0.68;0.60;;;;;;;;;;12908536;22;20027;-85
2022/12/28 15:51:56;;;;;;;2.05;0.50;;;;;;;;;;12881898;23;20047;-87
2022/12/28 15:57:00;;;;;;;1.25;0.63;;;;;;;;;;12880319;22;20578;-86
2022/12/28 16:02:03;;;;;;;0.77;0.70;;;;;;;;;;12881968;23;20352;-88
2022/12/28 16:07:08;;;;;;;1.08;0.70;;;;;;;;;;12881555;22;20639;-88
2022/12/28 16:12:15;;;;;;;0.60;0.60;;;;;;;;;;12883037;23;20026;-87
2022/12/28 16:17:19;;;;;;;1.17;0.70;;;;;;;;;;12879935;22;20020;-86
2022/12/28 16:22:24;;;;;;;0.95;0.65;;;;;;;;;;12884668;23;20034;-88
2022/12/28 16:27:28;;;;;;;1.10;0.60;;;;;;;;;;12880677;22;20543;-85
2022/12/28 16:32:31;;;;;;;7.85;4.63;;;;;;;;;;12882796;23;20483;-88
2022/12/28 16:37:36;;;;;;;6.13;3.15;;;;;;;;;;12925051;22;20035;-86
2022/12/28 16:42:44;;;;;;;3.08;1.90;;;;;;;;;;12884163;23;20024;-87
2022/12/28 16:47:48;;;;;;;3.17;2.10;;;;;;;;;;12882054;22;20016;-87
2022/12/28 16:52:53;;;;;;;2.00;1.50;;;;;;;;;;12881374;23;20027;-88
2022/12/28 16:57:57;;;;;;;1.30;0.90;;;;;;;;;;12881933;22;20090;-87
2022/12/28 17:03:00;;;;;;;2.25;1.40;;;;;;;;;;12883198;23;20035;-88
2022/12/28 17:08:07;;;;;;;2.13;1.40;;;;;;;;;;12880013;22;20030;-86
2022/12/28 17:13:11;;;;;;;3.92;2.28;;;;;;;;;;12884943;23;20035;-87
2022/12/28 17:18:15;;;;;;;3.35;2.25;;;;;;;;;;12885817;22;20293;-88
2022/12/28 17:23:20;;;;;;;2.00;1.70;;;;;;;;;;12929775;23;20126;-88
2022/12/28 17:28:23;;;;;;;1.45;1.27;;;;;;;;;;12926573;22;20035;-87
2022/12/28 17:33:27;;;;;;;3.85;1.20;;;;;;;;;;12886705;23;20078;-89
2022/12/28 17:38:32;;;;;;;1.83;1.15;;;;;;;;;;12885750;22;20074;-88
2022/12/28 17:43:36;;;;;;;1.60;1.40;;;;;;;;;;12888410;23;20107;-86
2022/12/28 17:48:39;;;;;;;3.10;1.58;;;;;;;;;;12924231;22;20055;-88
2022/12/28 17:53:44;;;;;;;1.48;1.00;;;;;;;;;;12888142;23;20028;-88
2022/12/28 17:58:48;;;;;;;2.05;1.20;;;;;;;;;;12887107;22;20024;-88
2022/12/28 18:03:52;;;;;;;1.70;1.08;;;;;;;;;;12885990;23;20099;-88
2022/12/28 18:08:57;;;;;;;0.90;0.85;;;;;;;;;;12912711;22;20024;-87
2022/12/28 18:14:00;;;;;;;0.88;0.63;;;;;;;;;;12887471;23;20032;-85
2022/12/28 18:19:04;;;;;;;1.08;0.98;;;;;;;;;;12883983;23;20522;-87
2022/12/28 18:24:13;;;;;;;1.13;0.90;;;;;;;;;;12886848;23;20419;-87
2022/12/28 18:29:16;;;;;;;1.05;0.75;;;;;;;;;;12885007;23;20044;-87
2022/12/28 18:34:19;;;;;;;1.42;1.15;;;;;;;;;;12887009;23;20026;-87
2022/12/28 18:39:26;;;;;;;1.13;1.00;;;;;;;;;;12886154;23;20024;-87
2022/12/28 18:44:30;;;;;;;1.45;0.80;;;;;;;;;;12888456;23;20270;-88
2022/12/28 18:49:33;;;;;;;1.05;1.00;;;;;;;;;;12885986;23;20099;-88
2022/12/28 18:54:38;;;;;;;1.42;1.05;;;;;;;;;;12887278;23;20035;-87
2022/12/28 18:59:42;;;;;;;0.77;0.70;;;;;;;;;;12884983;23;20067;-87
2022/12/28 19:04:46;;;;;;;2.22;0.90;;;;;;;;;;12887262;23;20024;-87
2022/12/28 19:15:14;;;;;;;2.78;1.17;;;;;;;;;;12884566;23;20024;-86
2022/12/28 19:20:20;;;;;;;1.95;1.00;;;;;;;;;;12911924;22;20020;-88
2022/12/28 19:25:25;;;;;;;1.00;0.85;;;;;;;;;;12916721;23;20483;-89
2022/12/28 19:30:29;;;;;;;2.17;1.20;;;;;;;;;;12885844;23;20448;-87
2022/12/28 19:35:32;;;;;;;1.20;0.88;;;;;;;;;;12883765;23;20059;-85
2022/12/28 19:40:37;;;;;;;1.85;1.13;;;;;;;;;;12885613;23;20040;-88
2022/12/28 19:45:41;;;;;;;1.65;1.30;;;;;;;;;;12883144;23;20024;-88
2022/12/28 19:50:44;;;;;;;1.20;0.95;;;;;;;;;;12885565;23;20028;-88
2022/12/28 19:55:49;;;;;;;1.80;1.40;;;;;;;;;;12884236;23;20230;-88
2022/12/28 20:00:53;;;;;;;3.20;1.25;;;;;;;;;;12883507;23;20055;-88
2022/12/28 20:05:56;;;;;;;2.08;1.50;;;;;;;;;;12910942;22;20024;-89
2022/12/28 20:11:02;;;;;;;3.25;1.30;;;;;;;;;;12884187;23;20070;-88
2022/12/28 20:16:06;;;;;;;4.53;2.25;;;;;;;;;;12909354;22;20058;-87
2022/12/28 20:21:10;;;;;;;3.65;1.75;;;;;;;;;;12884085;23;20081;-88
2022/12/28 20:26:25;;;;;;;2.13;1.55;;;;;;;;;;12883112;22;20024;-88
2022/12/28 20:31:29;;;;;;;2.25;1.27;;;;;;;;;;12884883;23;20070;-87
2022/12/28 20:36:33;;;;;;;3.72;1.90;;;;;;;;;;12885017;22;20031;-86
2022/12/28 20:47:00;;;;;;;4.65;1.90;;;;;;;;;;12882599;22;20032;-87
2022/12/28 20:52:04;;;;;;;1.75;1.40;;;;;;;;;;12882513;23;20104;-86
2022/12/28 20:57:08;;;;;;;2.40;1.58;;;;;;;;;;12881728;22;20024;-88
2022/12/28 21:02:12;;;;;;;2.53;1.40;;;;;;;;;;12930311;23;20074;-86
2022/12/28 21:07:18;;;;;;;3.50;2.03;;;;;;;;;;12907803;22;20086;-87
2022/12/28 21:12:23;;;;;;;5.00;1.47;;;;;;;;;;12884206;23;20652;-85
2022/12/28 21:17:26;;;;;;;3.63;1.33;;;;;;;;;;12906564;22;20078;-87
2022/12/28 21:22:30;;;;;;;3.42;1.88;;;;;;;;;;12884210;23;20047;-88
2022/12/28 21:27:35;;;;;;;3.33;1.77;;;;;;;;;;12927309;22;20402;-87
2022/12/28 21:32:38;;;;;;;4.00;1.60;;;;;;;;;;12927913;23;20521;-87
2022/12/28 21:37:42;;;;;;;2.10;1.55;;;;;;;;;;12883279;22;20471;-87
2022/12/28 21:42:47;;;;;;;4.80;1.75;;;;;;;;;;12884324;23;20415;-88
2022/12/28 21:47:50;;;;;;;3.95;1.70;;;;;;;;;;12911162;22;20417;-85
2022/12/28 21:52:54;;;;;;;5.47;3.72;;;;;;;;;;12884133;23;20051;-87
2022/12/28 21:57:59;;;;;;;6.28;2.60;;;;;;;;;;12908604;22;20024;-87
2022/12/28 22:13:46;;;;;;;12.15;3.88;;;;;;;;;;12926001;23;20028;-86
2022/12/28 22:18:50;;;;;;;2.55;1.55;;;;;;;;;;12885846;22;20025;-86
2022/12/28 22:24:09;;;;;;;1.98;1.38;;;;;;;;;;12887366;23;20028;-87
2022/12/28 22:29:14;;;;;;;4.60;1.50;;;;;;;;;;12884831;23;20040;-85
2022/12/28 22:34:18;;;;;;;2.30;1.33;;;;;;;;;;12886890;23;20054;-87
2022/12/28 22:39:21;;;;;;;2.38;1.20;;;;;;;;;;12885077;23;20364;-86
2022/12/28 22:44:26;;;;;;;3.03;1.65;;;;;;;;;;12923352;23;20047;-88
2022/12/28 22:49:30;;;;;;;2.28;1.23;;;;;;;;;;12884073;23;20055;-86
2022/12/28 22:54:33;;;;;;;1.83;1.40;;;;;;;;;;12910066;23;20044;-86
2022/12/28 22:59:38;;;;;;;1.67;1.25;;;;;;;;;;12884351;23;20103;-87
2022/12/28 23:04:42;;;;;;;2.00;1.13;;;;;;;;;;12913188;23;20277;-88
2022/12/28 23:09:45;;;;;;;2.38;1.13;;;;;;;;;;12884573;23;20051;-87
2022/12/28 23:30:56;;;;;;;1.20;1.02;;;;;;;;;;12884906;23;20459;-85
2022/12/28 23:36:02;;;;;;;1.60;1.00;;;;;;;;;;12890276;22;20539;-88
2022/12/28 23:46:29;;;;;;;1.30;1.00;;;;;;;;;;12883660;22;19966;-88
2022/12/28 23:51:33;;;;;;;;;;;;;;;;;;12912134;23;20368;-86
2022/12/28 23:56:36;;;;;;;1.13;1.02;;;;;;;;;;12911034;22;20030;-87
